Pagrindinis puslapis
METAR-TAF:

METAR-TAF

Oro uostai :

Emmen, Šveicarija

platuma: 47-05-32N, ilguma: 8-18-16E, Aukštis: 426 m

Dabartinis oras

Ataskaita buvo paskelbta 28 minutes, ne 18:20 UTC
Vėjas 7 kt iš Šiaurės/Šiaurės Rytų
Temperatūra 15°C
Drėgmė 51%
Slėgis 1025 hPa
Matomumas 10 km arba daugiau
Su prošvaistėmis ne aukštis 4700 ft

METAR: LSME 191820Z AUTO 03007KT 9999NDV BKN047 15/05 Q1025 RMK

Laikas: 20:48 (18:48 UTC)


TAF: trūkstamas

Orai ataskaitas ir orų prognozės (METAR, TAF).

turimą stotys yra geltonos ir raudonos taškus žemėlapyje.

Perkelti pele per norėdami pamatyti stoties vardą.

Tada spustelėkite, norėdami matyti oro stebėjimo ir prognozės.

Norėdami pakeisti žemėlapį: spustelėkite ant žalios mygtukų su juodo kryžiaus žemyn,; žalią mygtuką su brūkšneliu, jei norite nutolinti; arba žalių rodyklių gretimoms žemėlapius.


METAR-TAF: